sensor_id;sensor_type;location;lat;lon;timestamp;P1;durP1;ratioP1;P2;durP2;ratioP2
77174;SDS011;66153;53.488;10.244;2022-12-24T00:01:06;16.42;;;6.70;;
77174;SDS011;66153;53.488;10.244;2022-12-24T00:03:32;18.85;;;6.78;;
77174;SDS011;66153;53.488;10.244;2022-12-24T00:05:58;18.67;;;6.95;;
77174;SDS011;66153;53.488;10.244;2022-12-24T00:08:23;18.50;;;7.30;;
77174;SDS011;66153;53.488;10.244;2022-12-24T00:10:52;17.70;;;7.20;;
77174;SDS011;66153;53.488;10.244;2022-12-24T00:13:17;19.38;;;7.30;;
77174;SDS011;66153;53.488;10.244;2022-12-24T00:15:43;20.55;;;7.28;;
77174;SDS011;66153;53.488;10.244;2022-12-24T00:18:08;20.67;;;6.90;;
77174;SDS011;66153;53.488;10.244;2022-12-24T00:20:34;19.23;;;7.28;;
77174;SDS011;66153;53.488;10.244;2022-12-24T00:22:59;20.95;;;7.28;;
77174;SDS011;66153;53.488;10.244;2022-12-24T00:25:24;19.70;;;7.93;;
77174;SDS011;66153;53.488;10.244;2022-12-24T00:27:50;19.02;;;7.80;;
77174;SDS011;66153;53.488;10.244;2022-12-24T00:30:15;18.42;;;7.22;;
77174;SDS011;66153;53.488;10.244;2022-12-24T00:32:40;19.92;;;7.78;;
77174;SDS011;66153;53.488;10.244;2022-12-24T00:35:06;20.20;;;7.13;;
77174;SDS011;66153;53.488;10.244;2022-12-24T00:37:31;21.45;;;7.57;;
77174;SDS011;66153;53.488;10.244;2022-12-24T00:39:57;19.15;;;7.15;;
77174;SDS011;66153;53.488;10.244;2022-12-24T00:42:22;20.80;;;7.45;;
77174;SDS011;66153;53.488;10.244;2022-12-24T00:44:47;17.80;;;7.43;;
77174;SDS011;66153;53.488;10.244;2022-12-24T00:47:13;21.30;;;8.98;;
77174;SDS011;66153;53.488;10.244;2022-12-24T00:49:38;19.00;;;7.55;;
77174;SDS011;66153;53.488;10.244;2022-12-24T00:52:04;27.38;;;9.05;;
77174;SDS011;66153;53.488;10.244;2022-12-24T00:54:29;21.30;;;7.50;;
77174;SDS011;66153;53.488;10.244;2022-12-24T00:56:54;20.95;;;7.40;;
77174;SDS011;66153;53.488;10.244;2022-12-24T00:59:20;19.30;;;7.70;;
77174;SDS011;66153;53.488;10.244;2022-12-24T01:01:45;23.33;;;7.80;;
77174;SDS011;66153;53.488;10.244;2022-12-24T01:04:10;18.95;;;7.22;;
77174;SDS011;66153;53.488;10.244;2022-12-24T01:06:54;20.40;;;8.00;;
77174;SDS011;66153;53.488;10.244;2022-12-24T01:09:20;22.05;;;8.50;;
77174;SDS011;66153;53.488;10.244;2022-12-24T01:11:45;22.77;;;7.88;;
77174;SDS011;66153;53.488;10.244;2022-12-24T01:14:11;20.60;;;7.47;;
77174;SDS011;66153;53.488;10.244;2022-12-24T01:16:36;20.98;;;7.47;;
77174;SDS011;66153;53.488;10.244;2022-12-24T01:19:01;19.40;;;7.32;;
77174;SDS011;66153;53.488;10.244;2022-12-24T01:21:27;22.38;;;7.40;;
77174;SDS011;66153;53.488;10.244;2022-12-24T01:23:52;20.52;;;7.50;;
77174;SDS011;66153;53.488;10.244;2022-12-24T01:26:17;22.85;;;8.02;;
77174;SDS011;66153;53.488;10.244;2022-12-24T01:28:43;23.98;;;8.57;;
77174;SDS011;66153;53.488;10.244;2022-12-24T01:31:17;25.75;;;8.48;;
77174;SDS011;66153;53.488;10.244;2022-12-24T01:33:44;23.58;;;8.43;;
77174;SDS011;66153;53.488;10.244;2022-12-24T01:36:11;25.55;;;8.70;;
77174;SDS011;66153;53.488;10.244;2022-12-24T01:38:37;21.85;;;7.72;;
77174;SDS011;66153;53.488;10.244;2022-12-24T01:41:03;24.92;;;8.18;;
77174;SDS011;66153;53.488;10.244;2022-12-24T01:43:46;20.95;;;7.32;;
77174;SDS011;66153;53.488;10.244;2022-12-24T01:46:17;22.67;;;9.18;;
77174;SDS011;66153;53.488;10.244;2022-12-24T01:51:32;23.25;;;8.32;;
77174;SDS011;66153;53.488;10.244;2022-12-24T01:54:02;26.08;;;8.70;;
77174;SDS011;66153;53.488;10.244;2022-12-24T01:56:31;25.15;;;8.77;;
77174;SDS011;66153;53.488;10.244;2022-12-24T01:58:59;27.08;;;8.45;;
77174;SDS011;66153;53.488;10.244;2022-12-24T02:01:28;23.35;;;9.18;;
77174;SDS011;66153;53.488;10.244;2022-12-24T02:03:53;26.98;;;8.90;;
77174;SDS011;66153;53.488;10.244;2022-12-24T02:06:18;27.40;;;9.07;;
77174;SDS011;66153;53.488;10.244;2022-12-24T02:08:45;24.33;;;8.68;;
77174;SDS011;66153;53.488;10.244;2022-12-24T02:11:18;25.50;;;8.88;;
77174;SDS011;66153;53.488;10.244;2022-12-24T02:13:47;28.17;;;8.45;;
77174;SDS011;66153;53.488;10.244;2022-12-24T02:32:47;19.80;;;7.35;;
77174;SDS011;66153;53.488;10.244;2022-12-24T02:38:08;26.95;;;10.00;;
77174;SDS011;66153;53.488;10.244;2022-12-24T02:41:29;25.75;;;8.68;;
77174;SDS011;66153;53.488;10.244;2022-12-24T02:43:35;27.90;;;9.60;;
77174;SDS011;66153;53.488;10.244;2022-12-24T02:46:03;24.60;;;8.30;;
77174;SDS011;66153;53.488;10.244;2022-12-24T02:48:32;22.92;;;8.25;;
77174;SDS011;66153;53.488;10.244;2022-12-24T02:51:04;26.70;;;8.45;;
77174;SDS011;66153;53.488;10.244;2022-12-24T02:53:31;25.75;;;8.43;;
77174;SDS011;66153;53.488;10.244;2022-12-24T03:03:56;20.45;;;7.07;;
77174;SDS011;66153;53.488;10.244;2022-12-24T03:06:49;22.45;;;7.85;;
77174;SDS011;66153;53.488;10.244;2022-12-24T03:11:52;20.42;;;6.85;;
77174;SDS011;66153;53.488;10.244;2022-12-24T03:14:24;23.00;;;7.30;;
77174;SDS011;66153;53.488;10.244;2022-12-24T03:16:50;20.67;;;6.93;;
77174;SDS011;66153;53.488;10.244;2022-12-24T03:19:15;22.30;;;7.30;;
77174;SDS011;66153;53.488;10.244;2022-12-24T03:21:41;19.45;;;7.03;;
77174;SDS011;66153;53.488;10.244;2022-12-24T03:24:07;19.52;;;6.72;;
77174;SDS011;66153;53.488;10.244;2022-12-24T03:26:34;20.45;;;6.88;;
77174;SDS011;66153;53.488;10.244;2022-12-24T03:29:00;18.52;;;6.63;;
77174;SDS011;66153;53.488;10.244;2022-12-24T03:31:38;16.25;;;6.07;;
77174;SDS011;66153;53.488;10.244;2022-12-24T03:34:05;18.83;;;6.75;;
77174;SDS011;66153;53.488;10.244;2022-12-24T03:36:30;17.85;;;6.30;;
77174;SDS011;66153;53.488;10.244;2022-12-24T03:38:55;17.27;;;6.32;;
77174;SDS011;66153;53.488;10.244;2022-12-24T03:41:21;19.95;;;6.85;;
77174;SDS011;66153;53.488;10.244;2022-12-24T03:43:46;17.20;;;6.57;;
77174;SDS011;66153;53.488;10.244;2022-12-24T03:46:11;18.83;;;6.10;;
77174;SDS011;66153;53.488;10.244;2022-12-24T03:48:37;16.25;;;6.18;;
77174;SDS011;66153;53.488;10.244;2022-12-24T03:51:02;17.52;;;6.43;;
77174;SDS011;66153;53.488;10.244;2022-12-24T03:53:28;20.63;;;6.55;;
77174;SDS011;66153;53.488;10.244;2022-12-24T03:55:53;18.20;;;6.60;;
77174;SDS011;66153;53.488;10.244;2022-12-24T03:58:18;19.65;;;6.32;;
77174;SDS011;66153;53.488;10.244;2022-12-24T04:00:44;17.27;;;6.13;;
77174;SDS011;66153;53.488;10.244;2022-12-24T04:03:09;19.77;;;6.32;;
77174;SDS011;66153;53.488;10.244;2022-12-24T04:05:34;20.25;;;6.07;;
77174;SDS011;66153;53.488;10.244;2022-12-24T04:08:00;17.60;;;6.65;;
77174;SDS011;66153;53.488;10.244;2022-12-24T04:10:25;19.58;;;6.85;;
77174;SDS011;66153;53.488;10.244;2022-12-24T04:12:50;22.55;;;7.03;;
77174;SDS011;66153;53.488;10.244;2022-12-24T04:15:16;20.92;;;6.38;;
77174;SDS011;66153;53.488;10.244;2022-12-24T04:17:41;19.25;;;6.45;;
77174;SDS011;66153;53.488;10.244;2022-12-24T04:20:07;20.40;;;7.03;;
77174;SDS011;66153;53.488;10.244;2022-12-24T04:22:32;20.15;;;6.93;;
77174;SDS011;66153;53.488;10.244;2022-12-24T04:24:58;24.42;;;6.75;;
77174;SDS011;66153;53.488;10.244;2022-12-24T04:27:23;17.48;;;6.47;;
77174;SDS011;66153;53.488;10.244;2022-12-24T04:29:48;20.17;;;6.30;;
77174;SDS011;66153;53.488;10.244;2022-12-24T04:32:14;18.63;;;6.93;;
77174;SDS011;66153;53.488;10.244;2022-12-24T04:34:40;24.17;;;7.32;;
77174;SDS011;66153;53.488;10.244;2022-12-24T04:37:05;20.42;;;7.50;;
77174;SDS011;66153;53.488;10.244;2022-12-24T04:39:30;22.02;;;6.85;;
77174;SDS011;66153;53.488;10.244;2022-12-24T04:41:56;24.10;;;7.20;;
77174;SDS011;66153;53.488;10.244;2022-12-24T04:44:21;23.42;;;7.93;;
77174;SDS011;66153;53.488;10.244;2022-12-24T04:46:46;23.10;;;7.32;;
77174;SDS011;66153;53.488;10.244;2022-12-24T04:49:12;25.52;;;7.85;;
77174;SDS011;66153;53.488;10.244;2022-12-24T04:51:37;26.95;;;8.45;;
77174;SDS011;66153;53.488;10.244;2022-12-24T04:54:02;25.40;;;7.97;;
77174;SDS011;66153;53.488;10.244;2022-12-24T04:56:28;23.60;;;7.57;;
77174;SDS011;66153;53.488;10.244;2022-12-24T04:58:55;29.83;;;8.88;;
77174;SDS011;66153;53.488;10.244;2022-12-24T05:01:22;25.70;;;8.95;;
77174;SDS011;66153;53.488;10.244;2022-12-24T05:03:48;26.90;;;7.88;;
77174;SDS011;66153;53.488;10.244;2022-12-24T05:06:15;25.58;;;8.25;;
77174;SDS011;66153;53.488;10.244;2022-12-24T05:08:42;22.88;;;7.45;;
77174;SDS011;66153;53.488;10.244;2022-12-24T05:11:08;23.15;;;7.55;;
77174;SDS011;66153;53.488;10.244;2022-12-24T05:13:34;23.58;;;7.47;;
77174;SDS011;66153;53.488;10.244;2022-12-24T05:15:59;24.45;;;7.10;;
77174;SDS011;66153;53.488;10.244;2022-12-24T05:18:25;22.02;;;6.65;;
77174;SDS011;66153;53.488;10.244;2022-12-24T05:20:50;23.90;;;6.80;;
77174;SDS011;66153;53.488;10.244;2022-12-24T05:23:16;24.08;;;7.45;;
77174;SDS011;66153;53.488;10.244;2022-12-24T05:26:01;20.27;;;7.03;;
77174;SDS011;66153;53.488;10.244;2022-12-24T05:28:45;21.00;;;7.57;;
77174;SDS011;66153;53.488;10.244;2022-12-24T05:31:11;25.25;;;7.35;;
77174;SDS011;66153;53.488;10.244;2022-12-24T05:33:36;20.70;;;6.70;;
77174;SDS011;66153;53.488;10.244;2022-12-24T05:36:02;22.15;;;7.05;;
77174;SDS011;66153;53.488;10.244;2022-12-24T05:38:27;21.77;;;7.07;;
77174;SDS011;66153;53.488;10.244;2022-12-24T05:40:52;19.30;;;5.38;;
77174;SDS011;66153;53.488;10.244;2022-12-24T05:43:18;18.42;;;5.88;;
77174;SDS011;66153;53.488;10.244;2022-12-24T05:45:43;20.50;;;6.28;;
77174;SDS011;66153;53.488;10.244;2022-12-24T05:48:08;13.23;;;5.07;;
77174;SDS011;66153;53.488;10.244;2022-12-24T05:50:34;17.85;;;6.07;;
77174;SDS011;66153;53.488;10.244;2022-12-24T05:53:00;16.17;;;5.82;;
77174;SDS011;66153;53.488;10.244;2022-12-24T05:55:25;17.63;;;5.97;;
77174;SDS011;66153;53.488;10.244;2022-12-24T05:57:51;21.48;;;6.38;;
77174;SDS011;66153;53.488;10.244;2022-12-24T06:00:16;19.83;;;6.13;;
77174;SDS011;66153;53.488;10.244;2022-12-24T06:02:42;18.42;;;6.10;;
77174;SDS011;66153;53.488;10.244;2022-12-24T06:05:07;15.85;;;5.97;;
77174;SDS011;66153;53.488;10.244;2022-12-24T06:07:33;16.63;;;5.78;;
77174;SDS011;66153;53.488;10.244;2022-12-24T06:09:58;17.08;;;5.72;;
77174;SDS011;66153;53.488;10.244;2022-12-24T06:12:24;16.30;;;5.78;;
77174;SDS011;66153;53.488;10.244;2022-12-24T06:14:49;20.92;;;6.00;;
77174;SDS011;66153;53.488;10.244;2022-12-24T06:17:15;18.98;;;5.80;;
77174;SDS011;66153;53.488;10.244;2022-12-24T06:19:40;15.18;;;5.53;;
77174;SDS011;66153;53.488;10.244;2022-12-24T06:22:05;14.35;;;5.82;;
77174;SDS011;66153;53.488;10.244;2022-12-24T06:24:30;14.82;;;5.53;;
77174;SDS011;66153;53.488;10.244;2022-12-24T06:26:56;16.77;;;5.90;;
77174;SDS011;66153;53.488;10.244;2022-12-24T06:29:21;16.05;;;5.07;;
77174;SDS011;66153;53.488;10.244;2022-12-24T06:31:46;13.60;;;5.28;;
77174;SDS011;66153;53.488;10.244;2022-12-24T06:34:12;13.50;;;5.68;;
77174;SDS011;66153;53.488;10.244;2022-12-24T06:36:37;17.73;;;5.53;;
77174;SDS011;66153;53.488;10.244;2022-12-24T06:39:02;13.50;;;5.18;;
77174;SDS011;66153;53.488;10.244;2022-12-24T06:41:28;15.32;;;5.35;;
77174;SDS011;66153;53.488;10.244;2022-12-24T06:43:53;15.50;;;5.20;;
77174;SDS011;66153;53.488;10.244;2022-12-24T06:46:19;17.70;;;5.38;;
77174;SDS011;66153;53.488;10.244;2022-12-24T06:48:45;13.90;;;5.10;;
77174;SDS011;66153;53.488;10.244;2022-12-24T06:51:11;14.32;;;5.25;;
77174;SDS011;66153;53.488;10.244;2022-12-24T06:53:40;12.27;;;5.13;;
77174;SDS011;66153;53.488;10.244;2022-12-24T06:56:07;13.38;;;5.10;;
77174;SDS011;66153;53.488;10.244;2022-12-24T07:01:02;11.65;;;4.53;;
77174;SDS011;66153;53.488;10.244;2022-12-24T07:03:29;13.50;;;4.85;;
77174;SDS011;66153;53.488;10.244;2022-12-24T07:05:55;14.52;;;4.90;;
77174;SDS011;66153;53.488;10.244;2022-12-24T07:08:21;10.90;;;4.40;;
77174;SDS011;66153;53.488;10.244;2022-12-24T07:10:50;11.00;;;4.78;;
77174;SDS011;66153;53.488;10.244;2022-12-24T07:13:16;11.48;;;4.05;;
77174;SDS011;66153;53.488;10.244;2022-12-24T07:15:41;11.40;;;4.05;;
77174;SDS011;66153;53.488;10.244;2022-12-24T07:18:07;11.52;;;4.53;;
77174;SDS011;66153;53.488;10.244;2022-12-24T07:20:32;10.70;;;3.85;;
77174;SDS011;66153;53.488;10.244;2022-12-24T07:22:57;9.90;;;3.75;;
77174;SDS011;66153;53.488;10.244;2022-12-24T07:25:23;10.30;;;3.95;;
77174;SDS011;66153;53.488;10.244;2022-12-24T07:27:48;10.07;;;4.03;;
77174;SDS011;66153;53.488;10.244;2022-12-24T07:30:13;9.45;;;3.78;;
77174;SDS011;66153;53.488;10.244;2022-12-24T07:32:39;9.07;;;3.40;;
77174;SDS011;66153;53.488;10.244;2022-12-24T07:35:05;11.55;;;3.95;;
77174;SDS011;66153;53.488;10.244;2022-12-24T07:37:30;12.13;;;4.30;;
77174;SDS011;66153;53.488;10.244;2022-12-24T07:39:56;8.30;;;3.72;;
77174;SDS011;66153;53.488;10.244;2022-12-24T07:42:21;11.00;;;4.40;;
77174;SDS011;66153;53.488;10.244;2022-12-24T07:44:46;9.85;;;3.67;;
77174;SDS011;66153;53.488;10.244;2022-12-24T07:47:12;9.07;;;3.20;;
77174;SDS011;66153;53.488;10.244;2022-12-24T07:49:37;8.75;;;3.97;;
77174;SDS011;66153;53.488;10.244;2022-12-24T07:52:03;8.73;;;3.72;;
77174;SDS011;66153;53.488;10.244;2022-12-24T07:54:28;10.52;;;4.20;;
77174;SDS011;66153;53.488;10.244;2022-12-24T07:56:53;9.10;;;3.85;;
77174;SDS011;66153;53.488;10.244;2022-12-24T07:59:19;8.77;;;3.92;;
77174;SDS011;66153;53.488;10.244;2022-12-24T08:01:45;9.65;;;3.78;;
77174;SDS011;66153;53.488;10.244;2022-12-24T08:04:10;8.48;;;3.28;;
77174;SDS011;66153;53.488;10.244;2022-12-24T08:06:36;10.32;;;3.88;;
77174;SDS011;66153;53.488;10.244;2022-12-24T08:09:01;9.25;;;4.13;;
77174;SDS011;66153;53.488;10.244;2022-12-24T08:11:27;10.07;;;3.67;;
77174;SDS011;66153;53.488;10.244;2022-12-24T08:13:52;9.05;;;3.75;;
77174;SDS011;66153;53.488;10.244;2022-12-24T08:16:17;14.55;;;4.30;;
77174;SDS011;66153;53.488;10.244;2022-12-24T08:18:43;12.32;;;3.88;;
77174;SDS011;66153;53.488;10.244;2022-12-24T08:21:08;11.50;;;4.18;;
77174;SDS011;66153;53.488;10.244;2022-12-24T08:23:34;10.50;;;3.80;;
77174;SDS011;66153;53.488;10.244;2022-12-24T08:26:00;12.77;;;5.10;;
77174;SDS011;66153;53.488;10.244;2022-12-24T08:28:26;11.85;;;4.00;;
77174;SDS011;66153;53.488;10.244;2022-12-24T08:30:51;12.05;;;4.10;;
77174;SDS011;66153;53.488;10.244;2022-12-24T08:33:16;11.60;;;4.03;;
77174;SDS011;66153;53.488;10.244;2022-12-24T08:35:50;11.55;;;4.38;;
77174;SDS011;66153;53.488;10.244;2022-12-24T08:38:16;10.50;;;4.22;;
77174;SDS011;66153;53.488;10.244;2022-12-24T08:40:42;10.80;;;4.32;;
77174;SDS011;66153;53.488;10.244;2022-12-24T08:43:08;7.70;;;3.85;;
77174;SDS011;66153;53.488;10.244;2022-12-24T08:45:33;9.82;;;3.53;;
77174;SDS011;66153;53.488;10.244;2022-12-24T08:47:59;8.98;;;4.13;;
77174;SDS011;66153;53.488;10.244;2022-12-24T08:50:25;9.95;;;3.70;;
77174;SDS011;66153;53.488;10.244;2022-12-24T08:52:50;8.70;;;3.83;;
77174;SDS011;66153;53.488;10.244;2022-12-24T08:55:15;10.15;;;3.65;;
77174;SDS011;66153;53.488;10.244;2022-12-24T08:57:41;8.15;;;3.50;;
77174;SDS011;66153;53.488;10.244;2022-12-24T09:00:06;7.38;;;3.17;;
77174;SDS011;66153;53.488;10.244;2022-12-24T09:02:33;9.05;;;3.28;;
77174;SDS011;66153;53.488;10.244;2022-12-24T09:04:58;6.65;;;3.25;;
77174;SDS011;66153;53.488;10.244;2022-12-24T09:07:24;6.53;;;3.03;;
77174;SDS011;66153;53.488;10.244;2022-12-24T09:09:49;6.57;;;3.08;;
77174;SDS011;66153;53.488;10.244;2022-12-24T09:12:14;8.55;;;3.28;;
77174;SDS011;66153;53.488;10.244;2022-12-24T09:14:40;8.43;;;3.63;;
77174;SDS011;66153;53.488;10.244;2022-12-24T09:17:05;8.40;;;3.65;;
77174;SDS011;66153;53.488;10.244;2022-12-24T09:19:30;7.22;;;3.35;;
77174;SDS011;66153;53.488;10.244;2022-12-24T09:21:56;8.18;;;3.83;;
77174;SDS011;66153;53.488;10.244;2022-12-24T09:24:21;7.72;;;3.63;;
77174;SDS011;66153;53.488;10.244;2022-12-24T09:26:47;7.05;;;3.30;;
77174;SDS011;66153;53.488;10.244;2022-12-24T09:29:13;5.30;;;2.63;;
77174;SDS011;66153;53.488;10.244;2022-12-24T09:31:39;7.93;;;3.67;;
77174;SDS011;66153;53.488;10.244;2022-12-24T09:34:04;7.45;;;3.55;;
77174;SDS011;66153;53.488;10.244;2022-12-24T09:36:30;8.40;;;3.40;;
77174;SDS011;66153;53.488;10.244;2022-12-24T09:38:55;7.15;;;3.25;;
77174;SDS011;66153;53.488;10.244;2022-12-24T09:43:46;9.97;;;3.93;;
77174;SDS011;66153;53.488;10.244;2022-12-24T09:46:31;9.63;;;4.22;;
77174;SDS011;66153;53.488;10.244;2022-12-24T09:49:03;9.27;;;4.18;;
77174;SDS011;66153;53.488;10.244;2022-12-24T09:51:32;11.85;;;4.63;;
77174;SDS011;66153;53.488;10.244;2022-12-24T09:56:33;7.90;;;3.90;;
77174;SDS011;66153;53.488;10.244;2022-12-24T09:59:06;10.88;;;4.78;;
77174;SDS011;66153;53.488;10.244;2022-12-24T10:01:35;7.00;;;3.70;;
77174;SDS011;66153;53.488;10.244;2022-12-24T10:04:07;9.63;;;4.60;;
77174;SDS011;66153;53.488;10.244;2022-12-24T10:06:37;11.25;;;5.18;;
77174;SDS011;66153;53.488;10.244;2022-12-24T10:11:55;9.93;;;5.03;;
77174;SDS011;66153;53.488;10.244;2022-12-24T10:27:53;10.05;;;4.85;;
77174;SDS011;66153;53.488;10.244;2022-12-24T10:30:20;9.98;;;5.20;;
77174;SDS011;66153;53.488;10.244;2022-12-24T10:32:47;9.55;;;4.75;;
77174;SDS011;66153;53.488;10.244;2022-12-24T10:37:39;9.97;;;4.67;;
77174;SDS011;66153;53.488;10.244;2022-12-24T10:40:05;8.70;;;4.32;;
77174;SDS011;66153;53.488;10.244;2022-12-24T10:42:37;7.68;;;4.38;;
77174;SDS011;66153;53.488;10.244;2022-12-24T10:45:07;6.82;;;3.65;;
77174;SDS011;66153;53.488;10.244;2022-12-24T10:47:38;8.82;;;4.47;;
77174;SDS011;66153;53.488;10.244;2022-12-24T10:50:09;9.13;;;3.83;;
77174;SDS011;66153;53.488;10.244;2022-12-24T10:52:40;8.05;;;4.20;;
77174;SDS011;66153;53.488;10.244;2022-12-24T10:57:41;9.30;;;4.82;;
77174;SDS011;66153;53.488;10.244;2022-12-24T11:00:17;7.50;;;4.10;;
77174;SDS011;66153;53.488;10.244;2022-12-24T11:02:44;10.75;;;4.97;;
77174;SDS011;66153;53.488;10.244;2022-12-24T11:05:31;10.30;;;4.88;;
77174;SDS011;66153;53.488;10.244;2022-12-24T11:08:00;9.77;;;4.95;;
77174;SDS011;66153;53.488;10.244;2022-12-24T11:10:27;8.85;;;4.60;;
77174;SDS011;66153;53.488;10.244;2022-12-24T11:12:52;10.43;;;4.63;;
77174;SDS011;66153;53.488;10.244;2022-12-24T11:15:19;10.07;;;4.60;;
77174;SDS011;66153;53.488;10.244;2022-12-24T11:20:25;8.85;;;4.28;;
77174;SDS011;66153;53.488;10.244;2022-12-24T11:22:51;9.13;;;4.55;;
77174;SDS011;66153;53.488;10.244;2022-12-24T11:25:19;9.57;;;4.53;;
77174;SDS011;66153;53.488;10.244;2022-12-24T11:27:46;7.80;;;4.03;;
77174;SDS011;66153;53.488;10.244;2022-12-24T11:32:40;10.27;;;5.20;;
77174;SDS011;66153;53.488;10.244;2022-12-24T11:35:07;12.43;;;5.75;;
77174;SDS011;66153;53.488;10.244;2022-12-24T11:37:39;14.60;;;6.45;;
77174;SDS011;66153;53.488;10.244;2022-12-24T11:40:05;12.80;;;6.90;;
77174;SDS011;66153;53.488;10.244;2022-12-24T11:42:44;14.68;;;7.25;;
77174;SDS011;66153;53.488;10.244;2022-12-24T11:45:21;13.75;;;6.28;;
77174;SDS011;66153;53.488;10.244;2022-12-24T11:47:48;12.73;;;5.63;;
77174;SDS011;66153;53.488;10.244;2022-12-24T11:50:27;10.43;;;5.28;;
77174;SDS011;66153;53.488;10.244;2022-12-24T11:52:57;10.23;;;4.97;;
77174;SDS011;66153;53.488;10.244;2022-12-24T11:58:32;11.82;;;5.10;;
77174;SDS011;66153;53.488;10.244;2022-12-24T12:01:10;11.13;;;5.03;;
77174;SDS011;66153;53.488;10.244;2022-12-24T12:03:40;10.93;;;5.47;;
77174;SDS011;66153;53.488;10.244;2022-12-24T12:09:04;10.30;;;5.72;;
77174;SDS011;66153;53.488;10.244;2022-12-24T12:11:32;14.88;;;6.70;;
77174;SDS011;66153;53.488;10.244;2022-12-24T12:13:58;14.00;;;6.47;;
77174;SDS011;66153;53.488;10.244;2022-12-24T12:19:19;10.80;;;5.55;;
77174;SDS011;66153;53.488;10.244;2022-12-24T12:21:47;11.50;;;6.55;;
77174;SDS011;66153;53.488;10.244;2022-12-24T12:24:16;16.70;;;7.47;;
77174;SDS011;66153;53.488;10.244;2022-12-24T12:26:45;11.70;;;5.63;;
77174;SDS011;66153;53.488;10.244;2022-12-24T12:29:24;10.85;;;5.15;;
77174;SDS011;66153;53.488;10.244;2022-12-24T12:31:53;10.63;;;5.10;;
77174;SDS011;66153;53.488;10.244;2022-12-24T12:34:26;10.15;;;5.10;;
77174;SDS011;66153;53.488;10.244;2022-12-24T12:37:04;8.57;;;5.00;;
77174;SDS011;66153;53.488;10.244;2022-12-24T12:39:38;12.88;;;7.40;;
77174;SDS011;66153;53.488;10.244;2022-12-24T12:42:19;13.30;;;7.78;;
77174;SDS011;66153;53.488;10.244;2022-12-24T12:47:50;11.40;;;5.30;;
77174;SDS011;66153;53.488;10.244;2022-12-24T12:50:32;13.88;;;6.07;;
77174;SDS011;66153;53.488;10.244;2022-12-24T12:55:34;12.43;;;5.57;;
77174;SDS011;66153;53.488;10.244;2022-12-24T12:58:03;14.70;;;6.07;;
77174;SDS011;66153;53.488;10.244;2022-12-24T13:00:35;18.38;;;9.18;;
77174;SDS011;66153;53.488;10.244;2022-12-24T13:15:59;29.35;;;20.05;;
77174;SDS011;66153;53.488;10.244;2022-12-24T13:18:43;15.25;;;7.28;;
77174;SDS011;66153;53.488;10.244;2022-12-24T13:21:26;18.95;;;12.30;;
77174;SDS011;66153;53.488;10.244;2022-12-24T13:29:38;18.05;;;10.43;;
77174;SDS011;66153;53.488;10.244;2022-12-24T13:34:46;13.73;;;7.40;;
77174;SDS011;66153;53.488;10.244;2022-12-24T13:53:02;15.63;;;7.07;;
77174;SDS011;66153;53.488;10.244;2022-12-24T13:55:28;19.33;;;7.50;;
77174;SDS011;66153;53.488;10.244;2022-12-24T13:58:03;20.20;;;9.40;;
77174;SDS011;66153;53.488;10.244;2022-12-24T14:00:33;17.48;;;7.60;;
77174;SDS011;66153;53.488;10.244;2022-12-24T14:03:15;21.35;;;12.55;;
77174;SDS011;66153;53.488;10.244;2022-12-24T14:05:46;24.77;;;15.55;;
77174;SDS011;66153;53.488;10.244;2022-12-24T14:16:02;37.15;;;21.45;;
77174;SDS011;66153;53.488;10.244;2022-12-24T14:18:28;34.03;;;19.42;;
77174;SDS011;66153;53.488;10.244;2022-12-24T14:20:57;30.95;;;16.55;;
77174;SDS011;66153;53.488;10.244;2022-12-24T14:26:05;25.70;;;13.25;;
77174;SDS011;66153;53.488;10.244;2022-12-24T14:28:49;25.23;;;11.25;;
77174;SDS011;66153;53.488;10.244;2022-12-24T14:31:20;21.92;;;9.60;;
77174;SDS011;66153;53.488;10.244;2022-12-24T14:33:46;18.90;;;9.57;;
77174;SDS011;66153;53.488;10.244;2022-12-24T14:36:11;21.42;;;8.27;;
77174;SDS011;66153;53.488;10.244;2022-12-24T14:38:40;29.30;;;9.90;;
77174;SDS011;66153;53.488;10.244;2022-12-24T14:46:55;21.38;;;10.82;;
77174;SDS011;66153;53.488;10.244;2022-12-24T14:54:58;21.92;;;9.50;;
77174;SDS011;66153;53.488;10.244;2022-12-24T14:57:24;23.40;;;9.40;;
77174;SDS011;66153;53.488;10.244;2022-12-24T15:02:21;25.65;;;14.80;;
77174;SDS011;66153;53.488;10.244;2022-12-24T15:05:01;23.52;;;13.40;;
77174;SDS011;66153;53.488;10.244;2022-12-24T15:12:52;33.77;;;18.00;;
77174;SDS011;66153;53.488;10.244;2022-12-24T15:15:18;22.50;;;10.45;;
77174;SDS011;66153;53.488;10.244;2022-12-24T15:17:44;19.80;;;9.25;;
77174;SDS011;66153;53.488;10.244;2022-12-24T15:20:13;23.85;;;10.43;;
77174;SDS011;66153;53.488;10.244;2022-12-24T15:22:43;19.83;;;9.23;;
77174;SDS011;66153;53.488;10.244;2022-12-24T15:25:16;25.13;;;9.07;;
77174;SDS011;66153;53.488;10.244;2022-12-24T15:27:43;23.73;;;9.90;;
77174;SDS011;66153;53.488;10.244;2022-12-24T15:30:13;21.77;;;9.55;;
77174;SDS011;66153;53.488;10.244;2022-12-24T15:32:40;22.08;;;8.07;;
77174;SDS011;66153;53.488;10.244;2022-12-24T15:35:06;16.23;;;7.70;;
77174;SDS011;66153;53.488;10.244;2022-12-24T15:37:34;16.67;;;7.28;;
77174;SDS011;66153;53.488;10.244;2022-12-24T15:40:07;19.65;;;8.02;;
77174;SDS011;66153;53.488;10.244;2022-12-24T15:42:46;20.58;;;8.68;;
77174;SDS011;66153;53.488;10.244;2022-12-24T15:45:16;17.95;;;8.15;;
77174;SDS011;66153;53.488;10.244;2022-12-24T15:47:46;21.20;;;8.20;;
77174;SDS011;66153;53.488;10.244;2022-12-24T15:50:14;25.13;;;10.48;;
77174;SDS011;66153;53.488;10.244;2022-12-24T15:52:42;25.08;;;8.15;;
77174;SDS011;66153;53.488;10.244;2022-12-24T15:55:26;19.85;;;8.88;;
77174;SDS011;66153;53.488;10.244;2022-12-24T15:57:53;17.83;;;8.43;;
77174;SDS011;66153;53.488;10.244;2022-12-24T16:00:20;25.95;;;9.65;;
77174;SDS011;66153;53.488;10.244;2022-12-24T16:02:51;28.60;;;9.73;;
77174;SDS011;66153;53.488;10.244;2022-12-24T16:05:17;29.15;;;9.90;;
77174;SDS011;66153;53.488;10.244;2022-12-24T16:07:57;26.80;;;9.18;;
77174;SDS011;66153;53.488;10.244;2022-12-24T16:10:34;28.73;;;9.93;;
77174;SDS011;66153;53.488;10.244;2022-12-24T16:13:02;29.70;;;9.52;;
77174;SDS011;66153;53.488;10.244;2022-12-24T16:15:44;23.88;;;9.20;;
77174;SDS011;66153;53.488;10.244;2022-12-24T16:18:17;29.45;;;10.02;;
77174;SDS011;66153;53.488;10.244;2022-12-24T16:20:49;29.15;;;10.05;;
77174;SDS011;66153;53.488;10.244;2022-12-24T16:23:16;24.35;;;9.15;;
77174;SDS011;66153;53.488;10.244;2022-12-24T16:25:43;30.08;;;10.55;;
77174;SDS011;66153;53.488;10.244;2022-12-24T16:28:11;28.02;;;12.43;;
77174;SDS011;66153;53.488;10.244;2022-12-24T16:30:37;40.97;;;16.80;;
77174;SDS011;66153;53.488;10.244;2022-12-24T16:33:03;29.73;;;12.05;;
77174;SDS011;66153;53.488;10.244;2022-12-24T16:35:29;29.10;;;12.45;;
77174;SDS011;66153;53.488;10.244;2022-12-24T16:38:01;35.05;;;14.63;;
77174;SDS011;66153;53.488;10.244;2022-12-24T16:40:27;39.95;;;19.58;;
77174;SDS011;66153;53.488;10.244;2022-12-24T16:42:52;39.00;;;15.80;;
77174;SDS011;66153;53.488;10.244;2022-12-24T16:45:36;32.83;;;12.25;;
77174;SDS011;66153;53.488;10.244;2022-12-24T16:48:02;37.70;;;12.85;;
77174;SDS011;66153;53.488;10.244;2022-12-24T16:50:30;31.35;;;12.55;;
77174;SDS011;66153;53.488;10.244;2022-12-24T16:52:55;29.38;;;11.68;;
77174;SDS011;66153;53.488;10.244;2022-12-24T16:55:20;21.83;;;8.07;;